• Join FlightAware (Why Join?)
  • Login
  • US Flag 
03:05AM EDT


 

Airport Tracker/Info


-or-


 

Live Flight TrackerFlight Track Log ✈ VRT51 ✈ 12-Oct-2013 ✈ KSTP - KBNA

Flight Track Log - Related Links

Times and Time Zones

All times are in EDT time to prevent confusion due to time zone crossing. See the VRT51 flight status page for this flight to view local times or setup timezone preferences in your user account.

Time Position Orientation Groundspeed Altitude Reporting Facility
EDT Latitude Longitude Course Direction KTS MPH feet Rate Location/Type
01:51AM 44.9000 -93.0167 115° Southeast 211 243 2,300  Level Minneapolis TRACON
01:52AM 44.8500 -92.9500 137° Southeast 255 293 5,100 3,000 Climbing Minneapolis TRACON
01:54AM 44.7883 -92.8569 133° Southeast 267 307 8,900 3,420 Climbing Minneapolis Center
01:55AM 44.7322 -92.7819 136° Southeast 276 318 12,800 3,900 Climbing Minneapolis Center
01:56AM 44.6608 -92.7256 151° Southeast 294 338 16,800 3,780 Climbing Minneapolis Center
01:57AM 44.3739 -92.5904 115° Southeast  Level Estimated
01:57AM 44.5881 -92.6653 149° Southeast 302 348 20,400  Level Minneapolis Center
01:58AM 44.5097 -92.5981 149° Southeast 317 365 23,000 2,460 Climbing Minneapolis Center
01:59AM 44.4233 -92.5256 149° Southeast 350 403 25,400 2,520 Climbing Minneapolis Center
02:00AM 44.3358 -92.4522 149° Southeast 364 419 28,100 2,100 Climbing Minneapolis Center
02:01AM 44.2472 -92.3781 149° Southeast 369 425 29,700 1,500 Climbing Minneapolis Center
02:02AM 44.1575 -92.3017 149° Southeast 378 435 31,200 1,620 Climbing Minneapolis Center
02:03AM 44.0669 -92.2256 149° Southeast 380 437 33,000 1,860 Climbing Minneapolis Center
02:04AM 43.9758 -92.1503 149° Southeast 380 437 35,000 1,500 Climbing Minneapolis Center
02:05AM 43.8883 -92.0756 148° Southeast 372 428 36,100 1,200 Climbing Minneapolis Center
02:06AM 43.7964 -92.0011 150° Southeast 380 437 37,400 1,200 Climbing Minneapolis Center
02:07AM 43.7064 -91.9247 148° Southeast 382 440 38,600 1,020 Climbing Minneapolis Center
02:08AM 43.6178 -91.8517 149° Southeast 376 433 39,500 780 Climbing Minneapolis Center
02:09AM 43.5286 -91.7783 149° Southeast 376 433 40,200 600 Climbing Minneapolis Center
02:10AM 43.4364 -91.7064 150° Southeast 381 438 40,700 360 Climbing Minneapolis Center
02:11AM 43.3422 -91.6292 149° Southeast 392 451 41,000 120 Climbing Minneapolis Center
02:12AM 43.2450 -91.5486 149° Southeast 404 465 41,000  Level Minneapolis Center
02:13AM 43.1431 -91.4669 150° Southeast 418 481 41,000  Level Minneapolis Center
02:14AM 43.0408 -91.3842 149° Southeast 425 489 41,000  Level Minneapolis Center
02:15AM 42.9381 -91.3022 150° Southeast 426 490 41,000  Level Minneapolis Center
02:16AM 42.8361 -91.2203 149° Southeast 425 489 41,000  Level Minneapolis Center
02:17AM 42.7333 -91.1403 150° Southeast 424 488 41,000  Level Minneapolis Center
02:18AM 42.6308 -91.0589 150° Southeast 426 490 41,000  Level Minneapolis Center
02:19AM 42.5281 -90.9797 150° Southeast 426 490 41,000  Level Minneapolis Center
02:20AM 42.4144 -90.8883 149° Southeast 423 487 41,000  Level Minneapolis Center
02:21AM 42.2869 -90.7892 150° Southeast 426 490 41,000  Level Chicago Center
02:22AM 42.1847 -90.7094 150° Southeast 427 491 41,000  Level Chicago Center
02:23AM 42.0822 -90.6297 150° Southeast 428 493 41,000  Level Chicago Center
02:24AM 41.9794 -90.5497 150° Southeast 430 495 41,000  Level Chicago Center
02:25AM 41.8736 -90.4692 150° Southeast 438 504 41,000  Level Chicago Center
02:26AM 41.7661 -90.3875 150° Southeast 435 501 41,000  Level Chicago Center
02:27AM 41.6622 -90.3078 150° Southeast 431 496 41,000  Level Chicago Center
02:28AM 41.5581 -90.2281 150° Southeast 432 497 41,000  Level Chicago Center
02:29AM 41.4542 -90.1489 150° Southeast 430 495 41,000  Level Chicago Center
02:30AM 41.3497 -90.0706 151° Southeast 431 496 41,000  Level Chicago Center
02:31AM 41.2467 -89.9911 150° Southeast 429 494 41,000  Level Chicago Center
02:32AM 41.1431 -89.9139 151° Southeast 426 490 41,000  Level Chicago Center
02:33AM 41.0392 -89.8364 151° Southeast 427 491 41,000  Level Chicago Center
02:34AM 40.9422 -89.7636 150° Southeast 424 488 41,000  Level Chicago Center
02:35AM 40.8378 -89.6867 151° Southeast 430 495 41,000  Level Chicago Center
02:36AM 40.7339 -89.6103 151° Southeast 431 496 41,000  Level Chicago Center
02:37AM 40.6153 -89.5222 151° Southeast 431 496 41,000  Level Chicago Center
02:38AM 40.5097 -89.4447 151° Southeast 430 495 41,000  Level Chicago Center
02:39AM 40.4039 -89.3683 151° Southeast 433 498 41,000  Level Chicago Center
02:40AM 40.2983 -89.2914 151° Southeast 433 498 41,000  Level Chicago Center
02:41AM 40.1897 -89.2122 151° Southeast 440 506 41,000  Level Chicago Center
02:42AM 40.1050 -89.1511 151° Southeast 438 504 41,000  Level Kansas City Center
02:43AM 39.9981 -89.0742 151° Southeast 439 505 41,000  Level Kansas City Center
02:44AM 39.8900 -88.9967 151° Southeast 442 509 41,000  Level Kansas City Center
02:45AM 39.7825 -88.9194 151° Southeast 442 509 41,000  Level Kansas City Center
02:46AM 39.6736 -88.8419 151° Southeast 444 511 41,000  Level Kansas City Center
02:47AM 39.5650 -88.7642 151° Southeast 446 513 41,000  Level Kansas City Center
02:48AM 39.4550 -88.6878 152° Southeast 448 516 41,000  Level Kansas City Center
02:49AM 39.3411 -88.6072 151° Southeast 446 513 41,000  Level Kansas City Center
02:50AM 39.2411 -88.5347 151° Southeast 449 517 41,000  Level Kansas City Center
02:51AM 39.1308 -88.4581 152° Southeast 449 517 41,000  Level Kansas City Center
02:52AM 39.0186 -88.3792 151° Southeast 454 522 41,000  Level Kansas City Center
02:53AM 38.9056 -88.3022 152° Southeast 458 527 41,000  Level Kansas City Center
02:53AM 38.8383 -88.2561 152° Southeast 457 526 41,000  Level Indianapolis Center
02:54AM 38.7931 -88.2242 151° Southeast 458 527 41,000  Level Kansas City Center
02:55AM 38.6814 -88.1458 151° Southeast 458 527 41,000  Level Kansas City Center
02:55AM 38.6131 -88.1006 153° Southeast 459 528 41,000 -180 Level Indianapolis Center
02:56AM 38.5006 -88.0233 152° Southeast 460 529 40,800 -1,080 Descending Indianapolis Center
02:57AM 38.3872 -87.9461 152° Southeast 461 531 38,900 -1,980 Descending Indianapolis Center
02:58AM 38.2769 -87.8703 152° Southeast 454 522 36,900 -2,040 Descending Indianapolis Center
02:59AM 38.1639 -87.7939 152° Southeast 458 527 34,900 -1,980 Descending Indianapolis Center
03:00AM 38.0511 -87.7178 152° Southeast 460 529 33,000 -1,980 Descending Indianapolis Center
03:01AM 37.9378 -87.6414 152° Southeast 463 533 31,000 -2,040 Descending Indianapolis Center
03:02AM 37.8247 -87.5650 152° Southeast 461 531 29,000 -2,040 Descending Indianapolis Center
03:03AM 37.7147 -87.4919 152° Southeast 455 524 27,000 -2,040 Descending Indianapolis Center
03:04AM 37.6003 -87.4156 152° Southeast 459 528 25,000 -1,980 Descending Indianapolis Center
03:05AM 37.4850 -87.3394 152° Southeast 461 531 23,100 -1,020 Descending Indianapolis Center
03:06AM 37.3683 -87.2758 157° South 453 521 23,000 -60 Descending Indianapolis Center
03:07AM 37.2503 -87.2197 159° South 449 517 23,000 -60 Level Indianapolis Center
03:08AM 37.1317 -87.1622 159° South 451 519 22,900 -900 Descending Indianapolis Center
03:09AM 37.0222 -87.1089 159° South 421 484 21,200 -2,040 Descending Indianapolis Center
03:10AM 36.9150 -87.0578 159° South 410 472 18,800 -2,340 Descending Indianapolis Center
03:11AM 36.8100 -87.0058 158° South 404 465 16,500 -2,400 Descending Indianapolis Center
03:12AM 36.7033 -86.9547 159° South 405 466 14,100 -2,520 Descending Indianapolis Center
03:13AM 36.6003 -86.9053 159° South 395 455 11,500 -2,460 Descending Indianapolis Center
03:14AM 36.5231 -86.8619 156° South 369 425 9,200 -2,460 Descending Indianapolis Center
03:15AM 36.4467 -86.8056 149° Southeast 318 366 6,600 -2,520 Descending Indianapolis Center
03:16AM 36.3731 -86.7539 151° Southeast 300 345 4,200 -1,740 Descending Indianapolis Center
03:18AM 36.2942 -86.6981 150° Southeast 283 326 3,000 -900 Descending Memphis Center
03:19AM 36.2431 -86.6592 148° Southeast 240 276 2,400 -420 Descending Memphis Center
03:20AM 36.2069 -86.6375 154° Southeast 174 200 2,200 -540 Descending Memphis Center
03:21AM 36.1739 -86.6469 193° South 124 143 1,400 -780 Descending Memphis Center
03:22AM 36.1367 -86.6589 195° South 130 150 700 -420 Descending Memphis Center
03:23AM 36.1058 -86.6706 197° South 130 150 600 -120 Descending Memphis Center